createdAt,value
2022-08-11T00:01:23.331Z,1.40
2022-08-11T00:04:01.005Z,1.20
2022-08-11T00:06:32.127Z,1.30
2022-08-11T00:09:02.493Z,1.10
2022-08-11T00:11:58.823Z,1.27
2022-08-11T00:14:37.101Z,1.10
2022-08-11T00:17:15.816Z,1.10
2022-08-11T00:20:13.697Z,1.10
2022-08-11T00:22:37.215Z,1.33
2022-08-11T00:25:17.987Z,1.08
2022-08-11T00:27:47.799Z,1.30
2022-08-11T00:30:17.146Z,1.20
2022-08-11T00:32:56.091Z,1.02
2022-08-11T00:35:51.761Z,1.20
2022-08-11T00:38:24.888Z,1.25
2022-08-11T00:44:05.293Z,1.55
2022-08-11T00:47:02.265Z,1.08
2022-08-11T00:49:46.831Z,1.10
2022-08-11T00:52:54.589Z,1.10
2022-08-11T00:55:55.593Z,1.10
2022-08-11T00:59:03.481Z,1.10
2022-08-11T01:01:37.053Z,1.10
2022-08-11T01:04:31.590Z,1.48
2022-08-11T01:08:01.288Z,1.30
2022-08-11T01:11:02.759Z,1.13
2022-08-11T01:14:19.271Z,1.30
2022-08-11T01:17:44.316Z,1.10
2022-08-11T01:21:12.472Z,1.20
2022-08-11T01:24:38.643Z,1.00
2022-08-11T01:27:40.401Z,1.23
2022-08-11T01:31:05.987Z,1.30
2022-08-11T01:34:13.093Z,1.10
2022-08-11T01:37:39.120Z,1.33
2022-08-11T01:40:38.647Z,1.17
2022-08-11T01:44:13.263Z,1.38
2022-08-11T01:47:53.446Z,1.03
2022-08-11T01:51:18.653Z,1.20
2022-08-11T01:54:20.842Z,1.30
2022-08-11T01:57:22.283Z,0.98
2022-08-11T01:59:59.832Z,1.30
2022-08-11T02:02:54.311Z,1.30
2022-08-11T02:06:01.714Z,1.35
2022-08-11T02:08:52.082Z,1.40
2022-08-11T02:11:35.471Z,1.38
2022-08-11T02:14:29.347Z,1.40
2022-08-11T02:17:18.025Z,1.63
2022-08-11T02:20:25.849Z,1.42
2022-08-11T02:24:04.578Z,1.40
2022-08-11T02:26:44.461Z,1.27
2022-08-11T02:30:05.147Z,1.58
2022-08-11T02:33:10.730Z,1.38
2022-08-11T02:36:19.763Z,1.35
2022-08-11T02:39:08.493Z,1.40
2022-08-11T02:42:32.628Z,1.55
2022-08-11T02:45:34.126Z,1.58
2022-08-11T02:49:09.057Z,1.50
2022-08-11T02:51:56.915Z,1.25
2022-08-11T02:55:10.571Z,1.33
2022-08-11T02:58:13.590Z,1.50
2022-08-11T03:00:57.536Z,1.70
2022-08-11T03:03:33.407Z,1.35
2022-08-11T03:06:23.409Z,1.77
2022-08-11T03:09:06.601Z,1.50
2022-08-11T03:12:25.177Z,1.50
2022-08-11T03:15:37.780Z,1.50
2022-08-11T03:18:41.666Z,1.27
2022-08-11T03:21:22.014Z,1.55
2022-08-11T03:24:08.551Z,1.60
2022-08-11T03:27:24.117Z,1.30
2022-08-11T03:30:32.397Z,1.35
2022-08-11T03:33:52.495Z,1.52
2022-08-11T03:37:17.890Z,1.42
2022-08-11T03:40:01.588Z,1.45
2022-08-11T03:43:03.352Z,1.27
2022-08-11T03:45:57.337Z,1.35
2022-08-11T03:48:47.912Z,1.90
2022-08-11T03:51:51.841Z,1.58
2022-08-11T03:54:50.606Z,1.42
2022-08-11T03:58:19.078Z,1.80
2022-08-11T04:01:17.090Z,1.70
2022-08-11T04:04:24.424Z,1.70
2022-08-11T04:07:28.960Z,1.77
2022-08-11T04:10:42.499Z,1.65
2022-08-11T04:13:38.294Z,2.10
2022-08-11T04:16:26.747Z,1.75
2022-08-11T04:19:31.396Z,1.92
2022-08-11T04:25:16.974Z,1.63
2022-08-11T04:28:31.403Z,1.75
2022-08-11T04:31:48.838Z,1.67
2022-08-11T04:34:44.718Z,1.80
2022-08-11T04:37:54.852Z,2.20
2022-08-11T04:41:20.543Z,2.00
2022-08-11T04:44:43.339Z,2.17
2022-08-11T04:48:32.609Z,1.80
2022-08-11T04:51:58.801Z,2.85
2022-08-11T04:55:37.802Z,2.03
2022-08-11T04:58:45.534Z,2.25
2022-08-11T05:01:42.406Z,2.25
2022-08-11T05:04:58.173Z,2.13
2022-08-11T05:08:29.415Z,2.03
2022-08-11T05:11:30.647Z,1.98
2022-08-11T05:14:48.924Z,2.00
2022-08-11T05:17:48.349Z,2.33
2022-08-11T05:20:34.092Z,2.42
2022-08-11T05:23:27.962Z,2.10
2022-08-11T05:26:48.022Z,2.25
2022-08-11T05:29:59.707Z,2.40
2022-08-11T05:33:01.446Z,2.25
2022-08-11T05:36:02.532Z,2.30
2022-08-11T05:38:54.184Z,2.47
2022-08-11T05:41:50.268Z,2.50
2022-08-11T05:44:40.630Z,2.22
2022-08-11T05:47:26.457Z,2.75
2022-08-11T05:50:13.787Z,2.70
2022-08-11T05:53:09.100Z,2.50
2022-08-11T05:56:03.177Z,2.40
2022-08-11T05:58:43.075Z,2.72
2022-08-11T06:01:14.386Z,2.70
2022-08-11T06:04:04.476Z,2.65
2022-08-11T06:06:32.113Z,2.45
2022-08-11T06:09:01.078Z,2.58
2022-08-11T06:11:43.808Z,2.70
2022-08-11T06:14:13.294Z,3.03
2022-08-11T06:16:42.810Z,2.70
2022-08-11T06:19:10.694Z,3.05
2022-08-11T06:21:38.169Z,3.00
2022-08-11T06:24:13.878Z,2.92
2022-08-11T06:29:54.461Z,2.83
2022-08-11T06:32:46.923Z,2.55
2022-08-11T06:35:26.238Z,2.35
2022-08-11T06:38:10.410Z,2.63
2022-08-11T06:41:32.245Z,2.70
2022-08-11T06:44:14.256Z,2.78
2022-08-11T06:46:46.692Z,2.70
2022-08-11T06:49:35.074Z,2.22
2022-08-11T06:52:35.193Z,3.08
2022-08-11T06:55:55.832Z,2.50
2022-08-11T06:58:51.395Z,2.70
2022-08-11T07:01:37.189Z,2.35
2022-08-11T07:04:11.080Z,2.55
2022-08-11T07:07:28.000Z,2.30
2022-08-11T07:11:04.177Z,2.58
2022-08-11T07:13:54.658Z,2.42
2022-08-11T07:16:29.066Z,2.40
2022-08-11T07:19:23.224Z,2.40
2022-08-11T07:25:03.059Z,2.20
2022-08-11T07:30:43.409Z,1.90
2022-08-11T07:34:05.344Z,2.13
2022-08-11T07:36:05.732Z,2.40
2022-08-11T07:38:47.513Z,2.35
2022-08-11T07:41:18.492Z,2.30
2022-08-11T07:43:52.473Z,2.50
2022-08-11T07:47:01.016Z,2.50
2022-08-11T07:49:51.524Z,1.90
2022-08-11T07:52:29.674Z,1.92
2022-08-11T07:55:51.194Z,2.50
2022-08-11T07:58:45.020Z,2.28
2022-08-11T08:01:38.423Z,2.15
2022-08-11T08:04:26.900Z,2.05
2022-08-11T08:07:13.326Z,2.33
2022-08-11T08:10:02.069Z,2.13
2022-08-11T08:12:49.797Z,2.10
2022-08-11T08:15:36.867Z,2.17
2022-08-11T08:18:10.045Z,2.20
2022-08-11T08:20:55.308Z,2.15
2022-08-11T08:23:35.412Z,1.83
2022-08-11T08:26:29.362Z,2.83
2022-08-11T08:29:20.854Z,2.92
2022-08-11T08:31:49.598Z,2.42
2022-08-11T08:34:17.848Z,1.98
2022-08-11T08:36:48.415Z,2.15
2022-08-11T08:39:21.541Z,1.90
2022-08-11T08:41:57.015Z,2.17
2022-08-11T08:44:42.035Z,2.22
2022-08-11T08:47:41.903Z,2.33
2022-08-11T08:50:21.459Z,2.50
2022-08-11T08:53:06.005Z,2.00
2022-08-11T08:55:34.194Z,2.42
2022-08-11T08:58:02.252Z,2.08
2022-08-11T09:00:42.391Z,1.63
2022-08-11T09:03:40.635Z,1.88
2022-08-11T09:05:58.628Z,1.90
2022-08-11T09:08:25.875Z,2.97
2022-08-11T09:11:14.244Z,2.10
2022-08-11T09:13:44.479Z,1.73
2022-08-11T09:16:12.939Z,1.73
2022-08-11T09:18:44.619Z,1.80
2022-08-11T09:21:15.634Z,2.10
2022-08-11T09:24:26.009Z,1.80
2022-08-11T09:27:00.091Z,2.25
2022-08-11T09:29:33.055Z,2.08
2022-08-11T09:32:00.672Z,1.60
2022-08-11T09:34:28.614Z,1.80
2022-08-11T09:37:28.405Z,1.88
2022-08-11T09:40:21.210Z,1.90
2022-08-11T09:43:15.755Z,1.65
2022-08-11T09:45:51.484Z,1.90
2022-08-11T09:48:21.903Z,2.08
2022-08-11T09:51:00.227Z,1.75
2022-08-11T09:54:03.471Z,1.60
2022-08-11T09:56:51.126Z,1.53
2022-08-11T09:59:21.727Z,1.92
2022-08-11T10:01:57.234Z,1.80
2022-08-11T10:04:35.110Z,1.75
2022-08-11T10:07:10.694Z,1.83
2022-08-11T10:09:52.201Z,1.80
2022-08-11T10:12:37.272Z,1.88
2022-08-11T10:15:29.128Z,1.90
2022-08-11T10:18:25.856Z,1.58
2022-08-11T10:21:01.544Z,1.60
2022-08-11T10:24:00.293Z,1.92
2022-08-11T10:26:49.533Z,2.10
2022-08-11T10:29:44.221Z,1.98
2022-08-11T10:32:33.262Z,4.65
2022-08-11T10:35:13.614Z,2.80
2022-08-11T10:38:09.112Z,2.10
2022-08-11T10:40:32.702Z,2.08
2022-08-11T10:43:07.658Z,2.10
2022-08-11T10:45:57.491Z,2.08
2022-08-11T10:48:28.286Z,1.95
2022-08-11T10:51:14.824Z,1.50
2022-08-11T10:54:04.939Z,1.70
2022-08-11T10:56:55.793Z,1.85
2022-08-11T10:59:26.649Z,1.50
2022-08-11T11:01:54.634Z,1.63
2022-08-11T11:04:33.927Z,1.40
2022-08-11T11:07:15.113Z,1.67
2022-08-11T11:09:48.947Z,1.48
2022-08-11T11:12:49.357Z,1.70
2022-08-11T11:15:39.864Z,2.00
2022-08-11T11:18:12.732Z,1.80
2022-08-11T11:20:51.428Z,1.70
2022-08-11T11:24:12.142Z,1.80
2022-08-11T11:27:32.963Z,2.25
2022-08-11T11:30:10.423Z,1.65
2022-08-11T11:33:11.304Z,2.17
2022-08-11T11:36:26.963Z,1.92
2022-08-11T11:38:56.505Z,1.60
2022-08-11T11:41:25.721Z,1.80
2022-08-11T11:43:57.190Z,1.63
2022-08-11T11:46:30.208Z,1.88
2022-08-11T11:51:28.323Z,1.60
2022-08-11T11:53:56.056Z,1.83
2022-08-11T11:56:25.765Z,1.90
2022-08-11T11:59:14.623Z,2.03
2022-08-11T12:01:44.837Z,2.40
2022-08-11T12:04:20.516Z,1.52
2022-08-11T12:06:47.808Z,1.60
2022-08-11T12:09:18.369Z,1.75
2022-08-11T12:12:04.518Z,1.52
2022-08-11T12:14:31.905Z,1.58
2022-08-11T12:16:59.533Z,1.67
2022-08-11T12:19:35.758Z,1.65
2022-08-11T12:22:21.978Z,1.67
2022-08-11T12:25:07.681Z,1.23
2022-08-11T12:27:38.922Z,1.33
2022-08-11T12:30:08.458Z,1.60
2022-08-11T12:32:38.767Z,1.73
2022-08-11T12:35:08.443Z,1.50
2022-08-11T12:37:44.583Z,1.90
2022-08-11T12:41:11.575Z,1.60
2022-08-11T12:43:56.519Z,1.80
2022-08-11T12:46:31.923Z,1.48
2022-08-11T12:49:41.904Z,1.50
2022-08-11T12:52:25.353Z,1.65
2022-08-11T12:55:13.558Z,1.65
2022-08-11T12:58:05.218Z,1.55
2022-08-11T13:00:52.232Z,1.58
2022-08-11T13:03:39.898Z,1.42
2022-08-11T13:06:08.434Z,1.60
2022-08-11T13:08:39.248Z,1.52
2022-08-11T13:11:55.991Z,1.65
2022-08-11T13:14:15.596Z,1.75
2022-08-11T13:17:03.202Z,1.50
2022-08-11T13:19:32.212Z,1.50
2022-08-11T13:22:00.923Z,1.50
2022-08-11T13:24:28.781Z,1.63
2022-08-11T13:26:56.371Z,1.10
2022-08-11T13:29:27.599Z,1.67
2022-08-11T13:32:01.114Z,1.73
2022-08-11T13:34:33.159Z,1.50
2022-08-11T13:37:04.561Z,1.52
2022-08-11T13:39:34.656Z,2.03
2022-08-11T13:42:04.606Z,1.98
2022-08-11T13:44:36.677Z,1.55
2022-08-11T13:47:08.513Z,1.50
2022-08-11T13:49:39.602Z,1.52
2022-08-11T13:52:15.099Z,1.30
2022-08-11T13:54:44.946Z,1.30
2022-08-11T13:58:08.583Z,1.30
2022-08-11T14:00:20.901Z,1.40
2022-08-11T14:02:57.529Z,1.00
2022-08-11T14:05:31.261Z,1.30
2022-08-11T14:08:37.713Z,1.25
2022-08-11T14:12:19.990Z,1.25
2022-08-11T14:14:13.767Z,1.10
2022-08-11T14:16:44.672Z,1.17
2022-08-11T14:19:14.475Z,1.55
2022-08-11T14:22:07.650Z,1.40
2022-08-11T14:24:39.999Z,1.08
2022-08-11T14:28:22.042Z,1.10
2022-08-11T14:30:00.661Z,1.25
2022-08-11T14:32:28.238Z,1.10
2022-08-11T14:34:55.734Z,1.17
2022-08-11T14:37:27.462Z,1.15
2022-08-11T14:40:03.241Z,1.10
2022-08-11T14:42:49.845Z,1.10
2022-08-11T14:45:58.339Z,1.10
2022-08-11T14:48:23.899Z,1.00
2022-08-11T14:50:51.520Z,1.15
2022-08-11T14:53:22.785Z,0.90
2022-08-11T14:56:10.082Z,1.38
2022-08-11T14:58:39.781Z,1.25
2022-08-11T15:01:28.349Z,1.40
2022-08-11T15:04:34.621Z,1.20
2022-08-11T15:06:44.184Z,1.20
2022-08-11T15:09:11.074Z,1.17
2022-08-11T15:11:57.098Z,1.38
2022-08-11T15:14:43.510Z,1.38
2022-08-11T15:17:13.277Z,1.40
2022-08-11T15:20:04.127Z,1.05
2022-08-11T15:22:50.159Z,1.10
2022-08-11T15:25:17.138Z,1.13
2022-08-11T15:28:07.419Z,1.00
2022-08-11T15:30:55.606Z,1.10
2022-08-11T15:33:47.127Z,1.00
2022-08-11T15:36:34.270Z,1.20
2022-08-11T15:39:20.947Z,1.20
2022-08-11T15:42:19.844Z,1.58
2022-08-11T15:45:16.358Z,1.27
2022-08-11T15:47:58.503Z,1.10
2022-08-11T15:50:40.084Z,1.13
2022-08-11T15:53:21.984Z,1.30
2022-08-11T15:55:49.277Z,1.00
2022-08-11T15:58:38.423Z,1.10
2022-08-11T16:01:28.029Z,1.23
2022-08-11T16:04:12.436Z,0.98
2022-08-11T16:07:01.939Z,1.10
2022-08-11T16:10:00.051Z,1.20
2022-08-11T16:12:31.487Z,1.08
2022-08-11T16:15:25.497Z,1.10
2022-08-11T16:18:01.725Z,0.88
2022-08-11T16:20:31.775Z,1.15
2022-08-11T16:23:04.822Z,1.35
2022-08-11T16:27:04.749Z,1.08
2022-08-11T16:28:25.969Z,1.15
2022-08-11T16:30:55.174Z,1.27
2022-08-11T16:33:50.468Z,0.90
2022-08-11T16:36:33.597Z,1.80
2022-08-11T16:39:03.213Z,1.38
2022-08-11T16:41:54.082Z,1.40
2022-08-11T16:44:42.961Z,1.30
2022-08-11T16:47:18.159Z,1.38
2022-08-11T16:50:08.664Z,1.45
2022-08-11T16:52:35.523Z,1.00
2022-08-11T16:55:03.919Z,1.10
2022-08-11T16:57:52.848Z,1.58
2022-08-11T17:00:19.645Z,1.30
2022-08-11T17:03:11.729Z,1.15
2022-08-11T17:06:06.750Z,1.45
2022-08-11T17:09:02.730Z,1.48
2022-08-11T17:11:56.766Z,1.30
2022-08-11T17:14:37.697Z,1.23
2022-08-11T17:17:38.926Z,1.27
2022-08-11T17:20:41.017Z,1.00
2022-08-11T17:23:17.689Z,1.15
2022-08-11T17:26:03.739Z,1.25
2022-08-11T17:28:33.248Z,1.52
2022-08-11T17:31:22.460Z,1.50
2022-08-11T17:34:10.729Z,1.55
2022-08-11T17:36:44.582Z,1.48
2022-08-11T17:39:14.729Z,1.30
2022-08-11T17:42:03.213Z,1.30
2022-08-11T17:44:51.581Z,1.70
2022-08-11T17:47:38.956Z,1.60
2022-08-11T17:50:16.499Z,1.70
2022-08-11T17:53:05.425Z,1.80
2022-08-11T17:55:54.408Z,1.80
2022-08-11T17:58:42.136Z,1.85
2022-08-11T18:01:11.679Z,1.70
2022-08-11T18:03:57.571Z,1.77
2022-08-11T18:06:34.361Z,1.65
2022-08-11T18:09:26.820Z,1.73
2022-08-11T18:12:14.731Z,1.40
2022-08-11T18:15:06.351Z,1.83
2022-08-11T18:17:54.560Z,1.65
2022-08-11T18:20:41.582Z,1.85
2022-08-11T18:23:46.293Z,2.13
2022-08-11T18:26:38.404Z,2.10
2022-08-11T18:29:26.880Z,1.50
2022-08-11T18:32:20.891Z,1.98
2022-08-11T18:35:09.585Z,1.85
2022-08-11T18:38:02.618Z,2.15
2022-08-11T18:40:49.543Z,2.10
2022-08-11T18:43:39.946Z,1.83
2022-08-11T18:46:30.209Z,2.33
2022-08-11T18:50:02.100Z,2.65
2022-08-11T18:52:44.283Z,1.95
2022-08-11T18:55:38.890Z,3.33
2022-08-11T18:58:30.240Z,2.80
2022-08-11T19:01:20.274Z,2.78
2022-08-11T19:04:11.204Z,2.65
2022-08-11T19:07:07.019Z,3.25
2022-08-11T19:09:56.559Z,2.70
2022-08-11T19:12:44.322Z,2.72
2022-08-11T19:15:32.259Z,3.15
2022-08-11T19:18:19.434Z,2.63
2022-08-11T19:21:06.974Z,2.88
2022-08-11T19:23:57.348Z,2.58
2022-08-11T19:26:43.729Z,2.72
2022-08-11T19:30:07.926Z,2.50
2022-08-11T19:32:39.546Z,2.10
2022-08-11T19:35:26.640Z,2.55
2022-08-11T19:38:14.009Z,2.15
2022-08-11T19:41:01.016Z,2.40
2022-08-11T19:43:50.355Z,2.50
2022-08-11T19:46:41.867Z,2.25
2022-08-11T19:49:29.102Z,2.13
2022-08-11T19:52:17.055Z,1.88
2022-08-11T19:55:04.668Z,1.80
2022-08-11T19:57:53.164Z,2.00
2022-08-11T20:00:39.920Z,1.83
2022-08-11T20:03:29.884Z,1.83
2022-08-11T20:06:21.401Z,1.80
2022-08-11T20:09:09.878Z,1.85
2022-08-11T20:12:01.475Z,2.33
2022-08-11T20:14:53.293Z,1.58
2022-08-11T20:17:44.618Z,1.75
2022-08-11T20:20:33.570Z,1.92
2022-08-11T20:23:24.293Z,1.90
2022-08-11T20:26:30.259Z,1.95
2022-08-11T20:29:19.294Z,1.90
2022-08-11T20:32:08.474Z,1.70
2022-08-11T20:34:57.546Z,1.58
2022-08-11T20:37:51.020Z,1.60
2022-08-11T20:40:42.745Z,1.67
2022-08-11T20:44:08.206Z,1.98
2022-08-11T20:46:43.060Z,1.73
2022-08-11T20:49:44.971Z,1.90
2022-08-11T20:52:38.952Z,1.85
2022-08-11T20:55:51.634Z,1.80
2022-08-11T21:18:44.652Z,1.50
2022-08-11T21:26:28.107Z,1.65
2022-08-11T21:29:47.001Z,1.70
2022-08-11T21:33:34.146Z,1.55
2022-08-11T21:41:57.080Z,1.75
2022-08-11T21:53:38.230Z,1.52
2022-08-11T22:05:46.488Z,1.17
